Time;durP1;ratioP1;P1;durP2;ratioP2;P2;SDS_P1;SDS_P2;PMS_P1;PMS_P2;Temp;Humidity;BMP_temperature;BMP_pressure;BME280_temperature;BME280_humidity;BME280_pressure;Samples;Min_cycle;Max_cycle;Signal;HPM_P1;HPM_P2
2023/09/10 00:01:54;;;;;;;18.63;14.63;;;19.80;7.90;;;;;;7390239;19;20023;-67
2023/09/10 00:04:24;;;;;;;21.52;14.70;;;19.70;9.20;;;;;;7389472;19;20010;-67
2023/09/10 00:06:56;;;;;;;18.10;14.38;;;19.80;10.70;;;;;;7390312;19;20081;-66
2023/09/10 00:09:26;;;;;;;20.20;13.98;;;19.70;10.70;;;;;;7392339;19;20082;-67
2023/09/10 00:11:56;;;;;;;19.92;15.18;;;19.70;12.60;;;;;;7396345;19;20525;-66
2023/09/10 00:14:26;;;;;;;18.02;14.57;;;19.70;12.20;;;;;;7394585;19;20062;-66
2023/09/10 00:16:56;;;;;;;20.08;14.23;;;19.80;12.10;;;;;;7396636;19;20474;-67
2023/09/10 00:19:26;;;;;;;20.65;15.25;;;19.80;12.20;;;;;;7395209;19;20018;-68
2023/09/10 00:21:59;;;;;;;20.33;14.95;;;19.80;12.20;;;;;;7396541;19;20015;-67
2023/09/10 00:24:29;;;;;;;20.92;15.07;;;19.70;12.50;;;;;;7395733;19;20007;-66
2023/09/10 00:26:59;;;;;;;18.05;14.55;;;19.70;13.70;;;;;;7396440;19;20037;-67
2023/09/10 00:29:29;;;;;;;17.48;14.13;;;19.70;15.70;;;;;;7395376;19;20006;-66
2023/09/10 00:31:58;;;;;;;18.45;14.25;;;19.60;17.90;;;;;;7396762;19;20006;-66
2023/09/10 00:34:32;;;;;;;20.85;14.50;;;19.70;15.80;;;;;;7395027;19;20466;-67
2023/09/10 00:37:05;;;;;;;19.40;14.32;;;19.70;15.50;;;;;;7396881;19;20035;-67
2023/09/10 00:39:33;;;;;;;20.50;14.43;;;19.60;17.60;;;;;;7396518;19;20078;-66
2023/09/10 00:42:03;;;;;;;18.63;13.90;;;19.60;18.30;;;;;;7394956;19;20010;-67
2023/09/10 00:44:33;;;;;;;16.00;13.23;;;19.60;19.40;;;;;;7394575;19;20082;-66
2023/09/10 00:47:03;;;;;;;21.55;14.10;;;19.70;16.40;;;;;;7396336;19;20022;-66
2023/09/10 00:49:33;;;;;;;22.60;14.13;;;19.70;15.50;;;;;;7394140;19;20018;-66
2023/09/10 00:52:07;;;;;;;20.50;14.10;;;19.70;15.00;;;;;;7394874;19;20014;-67
2023/09/10 00:54:37;;;;;;;18.33;13.77;;;19.70;15.60;;;;;;7394277;19;20007;-66
2023/09/10 00:57:08;;;;;;;22.02;13.98;;;19.70;13.70;;;;;;7396318;19;20116;-67
2023/09/10 00:59:38;;;;;;;19.75;14.52;;;19.70;14.00;;;;;;7393474;19;20010;-66
2023/09/10 01:02:08;;;;;;;19.17;13.30;;;19.70;13.40;;;;;;7396166;19;20094;-67
2023/09/10 01:04:38;;;;;;;22.05;14.05;;;19.60;14.10;;;;;;7394116;19;20404;-67
2023/09/10 01:07:11;;;;;;;17.35;14.32;;;19.50;13.80;;;;;;7395761;19;20010;-66
2023/09/10 01:09:41;;;;;;;20.40;14.32;;;19.60;15.90;;;;;;7394712;19;20022;-67
2023/09/10 01:12:18;;;;;;;19.52;14.00;;;19.50;17.20;;;;;;7395959;19;20074;-67
2023/09/10 01:14:58;;;;;;;19.30;14.57;;;19.50;18.80;;;;;;7393686;19;20015;-67
2023/09/10 01:17:36;;;;;;;14.98;13.38;;;19.60;19.00;;;;;;7394771;19;20014;-65
2023/09/10 01:20:35;;;;;;;20.02;14.50;;;19.60;18.70;;;;;;7395342;19;20022;-65
2023/09/10 01:23:16;;;;;;;17.10;14.13;;;19.60;18.40;;;;;;7395152;19;20569;-66
2023/09/10 01:25:49;;;;;;;20.30;13.65;;;19.60;16.00;;;;;;7393789;19;20018;-66
2023/09/10 01:28:19;;;;;;;18.85;13.32;;;19.70;15.20;;;;;;7394219;19;20026;-66
2023/09/10 01:30:48;;;;;;;17.42;13.70;;;19.70;14.00;;;;;;7394211;19;20021;-66
2023/09/10 01:33:26;;;;;;;17.23;13.20;;;19.80;12.20;;;;;;7395202;19;20014;-66
2023/09/10 01:36:02;;;;;;;18.75;13.88;;;19.80;7.20;;;;;;7393021;19;20021;-65
2023/09/10 01:38:42;;;;;;;18.33;13.05;;;19.80;6.10;;;;;;7393964;19;20010;-66
2023/09/10 01:41:17;;;;;;;18.08;14.20;;;19.80;8.40;;;;;;7395274;19;20021;-65
2023/09/10 01:43:48;;;;;;;20.15;13.95;;;19.70;9.60;;;;;;7393010;19;20364;-66
2023/09/10 01:46:19;;;;;;;17.23;14.38;;;19.60;10.50;;;;;;7395248;19;20489;-67
2023/09/10 01:48:50;;;;;;;16.83;13.85;;;19.50;17.70;;;;;;7393734;19;20046;-67
2023/09/10 01:51:20;;;;;;;17.40;13.80;;;19.30;24.00;;;;;;7392170;19;20086;-66
2023/09/10 01:53:50;;;;;;;18.20;13.25;;;19.40;27.80;;;;;;7392865;19;20018;-66
2023/09/10 01:56:23;;;;;;;20.25;13.68;;;19.30;29.20;;;;;;7393382;19;20021;-66
2023/09/10 01:58:53;;;;;;;18.20;13.77;;;19.30;29.10;;;;;;7393858;19;20019;-66
2023/09/10 02:01:23;;;;;;;15.32;13.23;;;19.20;30.50;;;;;;7393437;19;20014;-66
2023/09/10 02:03:53;;;;;;;16.58;13.60;;;19.20;33.80;;;;;;7391026;19;20629;-66
2023/09/10 02:06:23;;;;;;;16.83;13.45;;;19.20;36.40;;;;;;7393700;19;20107;-67
2023/09/10 02:08:53;;;;;;;18.10;14.32;;;19.10;39.60;;;;;;7393517;19;20558;-66
2023/09/10 02:11:25;;;;;;;16.90;13.10;;;19.00;47.10;;;;;;7393285;19;20024;-66
2023/09/10 02:13:56;;;;;;;18.25;13.57;;;19.00;49.60;;;;;;7392061;19;20486;-66
2023/09/10 02:16:26;;;;;;;15.85;13.45;;;19.00;49.30;;;;;;7393544;19;20006;-67
2023/09/10 02:18:56;;;;;;;17.83;14.05;;;19.00;48.40;;;;;;7393696;19;20014;-66
2023/09/10 02:21:26;;;;;;;18.08;13.45;;;18.90;47.40;;;;;;7392119;19;20011;-66
2023/09/10 02:23:56;;;;;;;18.38;14.23;;;18.90;53.40;;;;;;7392529;19;20081;-67
2023/09/10 02:26:28;;;;;;;22.65;13.52;;;18.90;52.80;;;;;;7393145;19;20023;-66
2023/09/10 02:28:59;;;;;;;17.95;14.00;;;18.80;54.90;;;;;;7393733;19;20018;-67
2023/09/10 02:31:29;;;;;;;17.63;13.70;;;18.70;59.20;;;;;;7391392;19;20354;-67
2023/09/10 02:34:01;;;;;;;15.10;12.30;;;18.70;63.80;;;;;;7392206;19;20474;-68
2023/09/10 02:36:31;;;;;;;17.05;14.05;;;18.70;68.50;;;;;;7393129;19;20011;-67
2023/09/10 02:39:01;;;;;;;19.70;12.93;;;18.70;68.70;;;;;;7392735;19;20538;-67
2023/09/10 02:41:33;;;;;;;18.92;13.82;;;18.60;65.90;;;;;;7392919;19;20006;-66
2023/09/10 02:44:04;;;;;;;17.35;13.88;;;18.60;76.90;;;;;;7392043;19;20034;-67
2023/09/10 02:46:33;;;;;;;18.95;14.65;;;18.50;76.00;;;;;;7392536;19;20490;-66
2023/09/10 02:49:03;;;;;;;16.83;13.43;;;18.50;79.70;;;;;;7392529;19;20018;-66
2023/09/10 02:51:33;;;;;;;19.90;14.05;;;18.50;77.60;;;;;;7391909;19;20078;-67
2023/09/10 02:54:03;;;;;;;17.50;15.00;;;18.40;87.70;;;;;;7391648;19;20085;-68
2023/09/10 02:56:36;;;;;;;18.33;15.00;;;18.40;91.10;;;;;;7391948;19;20010;-67
2023/09/10 02:59:06;;;;;;;20.33;15.63;;;18.40;90.30;;;;;;7392872;19;20086;-67
2023/09/10 03:01:36;;;;;;;18.33;14.80;;;18.40;87.40;;;;;;7391948;19;20018;-67
2023/09/10 03:04:06;;;;;;;17.73;14.07;;;18.40;85.60;;;;;;7391252;19;20019;-67
2023/09/10 03:06:36;;;;;;;16.77;14.60;;;18.40;88.30;;;;;;7392094;19;20035;-67
2023/09/10 03:09:06;;;;;;;21.08;14.48;;;18.40;86.90;;;;;;7392335;19;20078;-67
2023/09/10 03:11:40;;;;;;;15.13;13.07;;;18.40;86.10;;;;;;7392031;19;20543;-67
2023/09/10 03:14:10;;;;;;;17.55;14.00;;;18.40;87.20;;;;;;7390810;19;20104;-67
2023/09/10 03:16:42;;;;;;;18.60;13.65;;;18.40;86.60;;;;;;7391799;19;20018;-66
2023/09/10 03:19:13;;;;;;;19.80;13.70;;;18.40;81.30;;;;;;7392246;19;20106;-67
2023/09/10 03:21:43;;;;;;;17.20;14.38;;;18.40;80.30;;;;;;7391073;19;20473;-67
2023/09/10 03:24:13;;;;;;;19.17;14.85;;;18.40;81.80;;;;;;7390961;19;20035;-67
2023/09/10 03:26:45;;;;;;;18.13;14.05;;;18.40;78.60;;;;;;7390953;19;20023;-66
2023/09/10 03:29:15;;;;;;;15.73;13.95;;;18.40;78.40;;;;;;7391570;19;20396;-66
2023/09/10 03:31:45;;;;;;;17.05;14.00;;;18.30;79.50;;;;;;7390922;19;20029;-66
2023/09/10 03:34:15;;;;;;;19.85;14.45;;;18.30;90.30;;;;;;7389042;19;20081;-67
2023/09/10 03:36:45;;;;;;;16.48;14.48;;;18.30;88.30;;;;;;7391066;19;20338;-67
2023/09/10 03:39:15;;;;;;;19.42;15.05;;;18.20;86.50;;;;;;7391342;19;20027;-66
2023/09/10 03:41:47;;;;;;;16.85;15.05;;;18.10;89.40;;;;;;7388909;19;20379;-66
2023/09/10 03:44:19;;;;;;;19.60;15.77;;;18.00;92.40;;;;;;7388844;19;20021;-67
2023/09/10 03:46:50;;;;;;;18.35;13.85;;;18.00;93.60;;;;;;7390618;19;20018;-67
2023/09/10 03:49:20;;;;;;;17.83;14.77;;;18.20;95.20;;;;;;7390337;19;20078;-67
2023/09/10 03:51:50;;;;;;;17.98;14.18;;;18.20;91.60;;;;;;7390133;19;20018;-66
2023/09/10 03:54:20;;;;;;;16.88;14.95;;;18.20;85.50;;;;;;7384603;19;20086;-68
2023/09/10 03:56:52;;;;;;;17.05;13.60;;;18.10;88.80;;;;;;7389432;19;20103;-67
2023/09/10 03:59:22;;;;;;;20.20;14.70;;;18.10;89.50;;;;;;7389552;19;20018;-67
2023/09/10 04:01:52;;;;;;;15.90;13.77;;;18.20;92.10;;;;;;7387946;19;20035;-67
2023/09/10 04:04:23;;;;;;;18.70;14.77;;;18.30;90.50;;;;;;7387385;19;20398;-67
2023/09/10 04:06:53;;;;;;;15.52;13.05;;;18.20;85.90;;;;;;7388430;19;20010;-67
2023/09/10 04:09:23;;;;;;;19.80;14.95;;;18.10;87.30;;;;;;7389605;19;20028;-67
2023/09/10 04:11:57;;;;;;;17.08;13.40;;;18.20;95.20;;;;;;7390172;19;20017;-67
2023/09/10 04:14:27;;;;;;;19.40;14.32;;;18.20;92.80;;;;;;7388828;19;20475;-67
2023/09/10 04:16:57;;;;;;;17.20;14.73;;;18.10;92.00;;;;;;7389622;19;20120;-67
2023/09/10 04:19:27;;;;;;;17.80;14.40;;;18.20;92.90;;;;;;7389870;19;20006;-66
2023/09/10 04:21:57;;;;;;;20.15;14.77;;;18.20;91.40;;;;;;7389835;19;20069;-67
2023/09/10 04:24:27;;;;;;;20.85;15.05;;;18.20;84.90;;;;;;7388803;19;20006;-67
2023/09/10 04:27:00;;;;;;;18.70;14.38;;;18.20;89.60;;;;;;7390226;19;20030;-67
2023/09/10 04:29:30;;;;;;;20.75;14.43;;;18.20;90.20;;;;;;7389781;19;20097;-67
2023/09/10 04:32:00;;;;;;;18.58;14.57;;;18.10;89.70;;;;;;7389655;19;20014;-67
2023/09/10 04:34:30;;;;;;;19.27;14.43;;;18.10;85.30;;;;;;7388511;19;20490;-67
2023/09/10 04:36:59;;;;;;;16.77;14.95;;;17.90;83.20;;;;;;7389578;19;20114;-67
2023/09/10 04:39:29;;;;;;;18.17;14.25;;;17.90;93.00;;;;;;7387670;19;20370;-67
2023/09/10 04:42:02;;;;;;;19.33;16.17;;;17.90;94.10;;;;;;7389524;19;20022;-67
2023/09/10 04:44:34;;;;;;;18.13;15.27;;;17.90;93.20;;;;;;7388358;19;20007;-67
2023/09/10 04:47:05;;;;;;;21.38;15.25;;;17.80;94.20;;;;;;7389087;19;20338;-67
2023/09/10 04:49:35;;;;;;;23.00;15.70;;;17.70;95.70;;;;;;7389180;19;20506;-67
2023/09/10 04:52:05;;;;;;;20.20;14.50;;;17.80;99.90;;;;;;7387456;19;20018;-67
2023/09/10 04:54:35;;;;;;;15.88;14.05;;;17.80;99.90;;;;;;7387624;19;20073;-67
2023/09/10 04:57:07;;;;;;;19.13;14.60;;;17.90;98.30;;;;;;7391491;19;20018;-67
2023/09/10 04:59:37;;;;;;;16.52;14.73;;;17.90;97.60;;;;;;7395281;19;20014;-67
2023/09/10 05:02:08;;;;;;;19.30;15.57;;;17.90;99.90;;;;;;7395160;19;20467;-67
2023/09/10 05:04:38;;;;;;;22.42;16.20;;;17.80;99.90;;;;;;7394265;19;20026;-67
2023/09/10 05:07:08;;;;;;;19.08;15.32;;;17.90;99.90;;;;;;7396039;19;20011;-67
2023/09/10 05:09:38;;;;;;;23.35;15.55;;;18.00;98.00;;;;;;7395251;19;20038;-67
2023/09/10 05:12:11;;;;;;;21.05;15.63;;;18.10;95.10;;;;;;7395076;19;20082;-67
2023/09/10 05:14:41;;;;;;;18.92;14.27;;;18.30;73.10;;;;;;7393773;19;20018;-67
2023/09/10 05:17:11;;;;;;;16.33;14.27;;;18.50;64.70;;;;;;7395964;19;20022;-67
2023/09/10 05:19:42;;;;;;;21.20;15.63;;;18.90;43.90;;;;;;7394476;19;20092;-67
2023/09/10 05:22:12;;;;;;;17.77;14.23;;;19.30;24.30;;;;;;7395455;19;20360;-67
2023/09/10 05:24:42;;;;;;;17.13;13.95;;;19.50;15.00;;;;;;7393639;19;20073;-65
2023/09/10 05:27:15;;;;;;;18.17;14.35;;;19.80;6.90;;;;;;7396629;19;20014;-66
2023/09/10 05:29:45;;;;;;;17.25;13.95;;;19.80;3.30;;;;;;7394336;19;20031;-67
2023/09/10 05:32:15;;;;;;;16.58;13.80;;;19.20;19.40;;;;;;7395686;19;20010;-64
2023/09/10 05:34:45;;;;;;;21.45;14.00;;;18.90;31.70;;;;;;7393268;19;20474;-66
2023/09/10 05:37:15;;;;;;;18.55;13.15;;;18.90;36.60;;;;;;7395623;19;20027;-67
2023/09/10 05:39:45;;;;;;;16.63;13.73;;;18.90;37.20;;;;;;7394272;19;20019;-66
2023/09/10 05:42:17;;;;;;;19.17;14.15;;;18.90;40.40;;;;;;7395128;19;20035;-67
2023/09/10 05:44:53;;;;;;;16.58;13.30;;;18.90;45.50;;;;;;7392908;19;20029;-67
2023/09/10 05:47:23;;;;;;;19.35;13.30;;;19.00;39.00;;;;;;7393687;19;20029;-67
2023/09/10 05:49:54;;;;;;;19.23;13.25;;;19.00;37.00;;;;;;7392060;19;20022;-67
2023/09/10 05:52:24;;;;;;;17.42;13.50;;;19.20;35.80;;;;;;7393407;19;20022;-67
2023/09/10 05:54:54;;;;;;;18.55;14.13;;;19.30;30.00;;;;;;7390529;19;20018;-66
2023/09/10 05:57:27;;;;;;;17.65;13.35;;;19.40;27.20;;;;;;7393482;19;20073;-67
2023/09/10 05:59:57;;;;;;;18.50;13.43;;;19.60;28.80;;;;;;7393406;19;20010;-67
2023/09/10 06:02:29;;;;;;;15.60;13.13;;;19.60;21.90;;;;;;7392765;19;20007;-66
2023/09/10 06:04:59;;;;;;;17.92;13.75;;;19.60;25.40;;;;;;7392322;19;20035;-66
2023/09/10 06:07:30;;;;;;;22.77;14.13;;;19.60;17.30;;;;;;7392767;19;20039;-67
2023/09/10 06:09:59;;;;;;;20.35;14.13;;;19.70;19.90;;;;;;7393181;19;20406;-66
2023/09/10 06:12:32;;;;;;;16.05;14.13;;;19.80;18.30;;;;;;7393447;19;20069;-66
2023/09/10 06:15:04;;;;;;;16.73;13.27;;;19.70;17.50;;;;;;7391464;19;20022;-67
2023/09/10 06:17:34;;;;;;;24.15;14.40;;;19.80;15.70;;;;;;7392798;19;20014;-66
2023/09/10 06:20:07;;;;;;;19.85;13.85;;;19.80;13.30;;;;;;7392357;19;20538;-66
2023/09/10 06:22:37;;;;;;;20.35;12.93;;;20.00;11.30;;;;;;7393749;19;20359;-66
2023/09/10 06:25:08;;;;;;;17.10;13.52;;;20.10;8.20;;;;;;7392306;19;20097;-66
2023/09/10 06:27:41;;;;;;;17.30;13.23;;;19.80;11.60;;;;;;7393592;19;20007;-66
2023/09/10 06:30:12;;;;;;;21.60;14.45;;;19.90;11.10;;;;;;7393412;19;20022;-66
2023/09/10 06:32:41;;;;;;;17.00;14.13;;;19.90;8.20;;;;;;7393573;19;20011;-67
2023/09/10 06:35:12;;;;;;;17.95;14.38;;;20.10;8.30;;;;;;7392962;19;20364;-66
2023/09/10 06:37:42;;;;;;;17.15;13.88;;;20.30;6.60;;;;;;7393261;19;20011;-67
2023/09/10 06:40:13;;;;;;;17.42;13.68;;;20.40;1.00;;;;;;7392633;19;20090;-66
2023/09/10 06:42:46;;;;;;;18.55;13.90;;;20.20;6.30;;;;;;7393792;19;20048;-66
2023/09/10 06:45:17;;;;;;;15.52;13.52;;;20.50;1.00;;;;;;7392927;19;20017;-66
2023/09/10 06:47:47;;;;;;;16.60;12.98;;;20.50;1.00;;;;;;7394376;19;20014;-67
2023/09/10 06:50:17;;;;;;;19.13;13.15;;;20.80;1.00;;;;;;7394307;19;20651;-67
2023/09/10 06:52:47;;;;;;;20.05;12.90;;;20.80;1.00;;;;;;7392840;19;20014;-67
2023/09/10 06:55:17;;;;;;;21.67;13.02;;;20.90;1.00;;;;;;7392395;19;20007;-67
2023/09/10 06:57:49;;;;;;;15.32;11.85;;;21.00;1.00;;;;;;7392633;19;20078;-66
2023/09/10 07:00:20;;;;;;;16.48;12.13;;;21.00;1.00;;;;;;7391831;19;20086;-66
2023/09/10 07:02:49;;;;;;;15.23;12.88;;;21.00;1.00;;;;;;7392416;19;20014;-66
2023/09/10 07:05:20;;;;;;;17.35;12.98;;;21.10;1.00;;;;;;7390009;19;20018;-66
2023/09/10 07:07:53;;;;;;;17.05;12.73;;;21.00;1.00;;;;;;7390277;19;20015;-67
2023/09/10 07:10:23;;;;;;;15.18;12.02;;;21.30;1.00;;;;;;7391246;19;20402;-66
2023/09/10 07:12:55;;;;;;;16.90;12.55;;;21.50;1.00;;;;;;7391812;19;20010;-66
2023/09/10 07:15:25;;;;;;;13.55;11.23;;;21.60;1.00;;;;;;7389790;19;20495;-66
2023/09/10 07:17:55;;;;;;;15.27;11.18;;;21.60;1.00;;;;;;7390878;19;20027;-67
2023/09/10 07:20:25;;;;;;;16.92;12.82;;;21.50;1.00;;;;;;7389116;19;20017;-67
2023/09/10 07:22:56;;;;;;;16.75;11.88;;;21.70;1.00;;;;;;7391590;19;20021;-66
2023/09/10 07:25:26;;;;;;;16.27;11.80;;;21.90;1.00;;;;;;7389906;19;20020;-67
2023/09/10 07:28:01;;;;;;;19.75;12.15;;;21.80;1.00;;;;;;7390561;19;20082;-67
2023/09/10 07:30:31;;;;;;;15.25;11.65;;;22.00;1.00;;;;;;7390871;19;20085;-67
2023/09/10 07:33:01;;;;;;;15.07;10.93;;;22.20;1.00;;;;;;7389368;19;20015;-66
2023/09/10 07:35:31;;;;;;;18.33;11.93;;;22.30;1.00;;;;;;7389172;19;20384;-66
2023/09/10 07:38:01;;;;;;;13.88;11.50;;;22.20;1.00;;;;;;7390612;19;20080;-66
2023/09/10 07:40:33;;;;;;;15.85;11.05;;;22.50;1.00;;;;;;7390263;19;20021;-66
2023/09/10 07:43:06;;;;;;;16.00;11.30;;;22.30;1.00;;;;;;7389539;19;20014;-66
2023/09/10 07:45:39;;;;;;;15.05;11.60;;;22.50;1.00;;;;;;7389155;19;20042;-66
2023/09/10 07:48:09;;;;;;;11.80;10.55;;;22.60;1.00;;;;;;7389874;19;20122;-66
2023/09/10 07:50:39;;;;;;;13.95;10.52;;;22.90;1.00;;;;;;7390245;19;20025;-66
2023/09/10 07:53:09;;;;;;;13.73;10.48;;;22.90;1.00;;;;;;7387957;19;20443;-66
2023/09/10 07:55:39;;;;;;;14.38;10.30;;;23.00;1.00;;;;;;7388527;19;20009;-65
2023/09/10 07:58:11;;;;;;;16.40;11.13;;;23.00;1.00;;;;;;7390098;19;20046;-67
2023/09/10 08:00:42;;;;;;;15.13;10.48;;;23.20;1.00;;;;;;7389936;19;20031;-68
2023/09/10 08:03:14;;;;;;;16.65;10.55;;;23.20;1.00;;;;;;7391250;19;20037;-66
2023/09/10 08:05:48;;;;;;;13.75;10.02;;;23.40;1.00;;;;;;7389133;19;20015;-67
2023/09/10 08:08:18;;;;;;;12.23;10.25;;;23.50;1.00;;;;;;7387805;19;20018;-66
2023/09/10 08:10:48;;;;;;;15.23;10.25;;;23.60;1.00;;;;;;7386614;19;20023;-66
2023/09/10 08:13:21;;;;;;;14.50;9.93;;;23.90;1.00;;;;;;7389045;19;20015;-66
2023/09/10 08:15:51;;;;;;;11.65;10.10;;;23.90;1.00;;;;;;7387415;19;20471;-67
2023/09/10 08:18:21;;;;;;;14.85;10.38;;;24.20;1.00;;;;;;7387053;19;20349;-66
2023/09/10 08:20:51;;;;;;;15.35;10.77;;;24.10;1.00;;;;;;7387726;19;20027;-66
2023/09/10 08:23:21;;;;;;;13.75;10.45;;;23.80;1.00;;;;;;7386530;19;20409;-67
2023/09/10 08:25:52;;;;;;;12.70;9.98;;;24.20;1.00;;;;;;7387403;19;20007;-66
2023/09/10 08:28:25;;;;;;;12.85;10.20;;;24.30;1.00;;;;;;7386249;19;20370;-66
2023/09/10 08:30:55;;;;;;;15.98;9.82;;;24.40;1.00;;;;;;7390102;19;20050;-66
2023/09/10 08:33:26;;;;;;;14.45;9.73;;;24.30;1.00;;;;;;7392100;19;20018;-67
2023/09/10 08:35:57;;;;;;;15.45;9.93;;;24.40;1.00;;;;;;7393439;19;20034;-67
2023/09/10 08:38:27;;;;;;;12.88;9.98;;;24.50;1.00;;;;;;7392607;19;20470;-67
2023/09/10 08:41:22;;;;;;;14.30;9.27;;;24.50;1.00;;;;;;7391725;19;20021;-67
2023/09/10 08:43:58;;;;;;;13.52;9.75;;;24.70;1.00;;;;;;7393352;19;20017;-67
2023/09/10 08:46:32;;;;;;;13.32;9.55;;;24.80;1.00;;;;;;7394376;19;20022;-67
2023/09/10 08:49:03;;;;;;;13.43;9.90;;;24.60;1.00;;;;;;7394333;19;20006;-67
2023/09/10 08:51:34;;;;;;;13.25;9.90;;;24.70;1.00;;;;;;7394810;19;20081;-66
2023/09/10 08:54:05;;;;;;;14.20;9.60;;;24.40;1.00;;;;;;7393514;19;20014;-66
2023/09/10 08:56:36;;;;;;;13.98;9.23;;;24.60;1.00;;;;;;7393810;19;20011;-66
2023/09/10 08:59:10;;;;;;;11.70;9.82;;;24.90;1.00;;;;;;7390408;19;20408;-66
2023/09/10 09:01:40;;;;;;;10.85;8.60;;;24.80;1.00;;;;;;7392609;19;20018;-66
2023/09/10 09:04:10;;;;;;;12.68;8.90;;;24.90;1.00;;;;;;7393307;19;20078;-66
2023/09/10 09:06:42;;;;;;;13.13;8.80;;;24.60;1.00;;;;;;7394831;19;20354;-66
2023/09/10 09:09:14;;;;;;;14.30;9.40;;;24.70;1.00;;;;;;7394225;19;20011;-66
2023/09/10 09:11:45;;;;;;;14.23;8.60;;;24.50;1.00;;;;;;7394438;19;20010;-66
2023/09/10 09:14:19;;;;;;;14.23;8.90;;;24.90;1.00;;;;;;7394616;19;20127;-66
2023/09/10 09:16:50;;;;;;;12.73;8.30;;;25.20;1.00;;;;;;7393261;19;20672;-66
2023/09/10 09:19:22;;;;;;;12.55;8.73;;;25.30;1.00;;;;;;7392736;19;20010;-66
2023/09/10 09:21:54;;;;;;;14.90;8.50;;;25.00;1.00;;;;;;7391455;19;20006;-66
2023/09/10 09:24:24;;;;;;;12.73;8.52;;;25.20;1.00;;;;;;7393100;19;20018;-66
2023/09/10 09:26:55;;;;;;;12.75;8.57;;;25.40;1.00;;;;;;7393031;19;20018;-67
2023/09/10 09:29:28;;;;;;;11.90;8.27;;;25.40;1.00;;;;;;7392300;19;20014;-66
2023/09/10 09:31:59;;;;;;;12.20;8.77;;;25.50;1.00;;;;;;7390333;19;20010;-67
2023/09/10 09:34:29;;;;;;;16.27;8.15;;;25.30;1.00;;;;;;7391644;19;20014;-67
2023/09/10 09:36:59;;;;;;;14.43;8.07;;;25.40;1.00;;;;;;7391352;19;20018;-66
2023/09/10 09:39:31;;;;;;;10.90;8.68;;;25.70;1.00;;;;;;7393084;19;20022;-66
2023/09/10 09:42:01;;;;;;;11.73;8.05;;;25.80;1.00;;;;;;7389957;19;20481;-67
2023/09/10 09:44:34;;;;;;;11.10;8.63;;;25.80;1.00;;;;;;7391950;19;20011;-66
2023/09/10 09:47:04;;;;;;;12.63;8.63;;;25.70;1.00;;;;;;7391426;19;20019;-67
2023/09/10 09:49:45;;;;;;;12.60;7.95;;;25.80;1.00;;;;;;7392541;19;20364;-67
2023/09/10 09:52:19;;;;;;;11.35;7.72;;;26.10;1.00;;;;;;7392968;19;20091;-66
2023/09/10 09:54:51;;;;;;;12.10;7.57;;;25.90;1.00;;;;;;7390174;19;20019;-67
2023/09/10 09:57:22;;;;;;;12.85;7.95;;;26.00;1.00;;;;;;7392407;19;20034;-67
2023/09/10 09:59:55;;;;;;;9.05;7.50;;;26.00;1.00;;;;;;7390997;19;20083;-66
2023/09/10 10:02:25;;;;;;;10.90;7.50;;;25.80;1.00;;;;;;7391368;19;20077;-66
2023/09/10 10:04:56;;;;;;;12.13;7.57;;;26.00;1.00;;;;;;7389918;19;20478;-66
2023/09/10 10:07:28;;;;;;;12.98;7.65;;;26.20;1.00;;;;;;7391817;19;20010;-66
2023/09/10 10:10:17;;;;;;;9.20;7.28;;;26.40;1.00;;;;;;7392003;19;20010;-65
2023/09/10 10:12:48;;;;;;;9.27;7.45;;;26.40;1.00;;;;;;7392611;19;20135;-66
2023/09/10 10:15:22;;;;;;;11.32;7.65;;;26.30;1.00;;;;;;7390494;19;20026;-66
2023/09/10 10:17:52;;;;;;;;;;;26.20;1.00;;;;;;7391423;19;20007;-66
2023/09/10 10:20:24;;;;;;;8.82;7.65;;;26.40;1.00;;;;;;7393496;19;19921;-66
2023/09/10 10:22:55;;;;;;;10.07;7.13;;;26.60;1.00;;;;;;7391904;19;20018;-67
2023/09/10 10:25:26;;;;;;;12.68;7.93;;;26.60;1.00;;;;;;7392863;19;20014;-67
2023/09/10 10:27:57;;;;;;;9.50;7.35;;;26.70;1.00;;;;;;7392447;19;20032;-66
2023/09/10 10:30:32;;;;;;;13.55;7.35;;;26.70;1.00;;;;;;7392026;19;20030;-66
2023/09/10 10:33:07;;;;;;;7.70;6.90;;;26.90;1.00;;;;;;7390877;19;20668;-68
2023/09/10 10:35:43;;;;;;;9.00;7.15;;;27.10;1.00;;;;;;7389641;19;20019;-66
2023/09/10 10:38:19;;;;;;;12.18;7.13;;;27.20;1.00;;;;;;7392295;19;20606;-66
2023/09/10 10:40:52;;;;;;;10.77;7.13;;;26.90;1.00;;;;;;7392809;19;20006;-66
2023/09/10 10:43:28;;;;;;;10.83;7.37;;;27.00;1.00;;;;;;7393353;19;20011;-67
2023/09/10 10:46:03;;;;;;;8.68;6.25;;;27.00;1.00;;;;;;7391535;19;20267;-67
2023/09/10 10:48:36;;;;;;;7.85;6.30;;;27.10;1.00;;;;;;7392634;19;20010;-67
2023/09/10 10:51:12;;;;;;;10.27;6.70;;;27.30;1.00;;;;;;7391422;19;20696;-67
2023/09/10 10:53:42;;;;;;;7.95;6.55;;;26.90;1.00;;;;;;7380320;19;20014;-66
2023/09/10 10:56:14;;;;;;;7.75;6.43;;;27.10;1.00;;;;;;7368620;19;20018;-67
2023/09/10 10:58:44;;;;;;;7.85;6.03;;;27.20;1.00;;;;;;7372418;19;20056;-67
2023/09/10 11:01:17;;;;;;;7.00;5.95;;;27.30;1.00;;;;;;7372246;19;20027;-67
2023/09/10 11:03:48;;;;;;;10.85;6.45;;;27.30;1.00;;;;;;7368645;19;20403;-67
2023/09/10 11:06:18;;;;;;;8.60;6.18;;;27.60;1.00;;;;;;7372205;19;20007;-67
2023/09/10 11:08:48;;;;;;;7.05;6.15;;;27.40;1.00;;;;;;7371739;19;20133;-68
2023/09/10 11:11:50;;;;;;;6.38;5.40;;;27.90;1.00;;;;;;7372131;19;20036;-67
2023/09/10 11:14:20;;;;;;;7.70;6.20;;;27.90;1.00;;;;;;7367132;19;20011;-67
2023/09/10 11:17:24;;;;;;;8.38;5.90;;;28.00;1.00;;;;;;7371936;19;20466;-67
2023/09/10 11:19:54;;;;;;;8.30;6.18;;;27.90;1.00;;;;;;7371007;19;20579;-67
2023/09/10 11:22:25;;;;;;;9.55;6.20;;;27.30;1.00;;;;;;7371345;19;20010;-67
2023/09/10 11:25:05;;;;;;;7.35;6.55;;;27.70;1.00;;;;;;7366463;19;20106;-66
2023/09/10 11:27:36;;;;;;;8.93;6.10;;;27.70;1.00;;;;;;7368956;19;20024;-67
2023/09/10 11:30:16;;;;;;;8.90;5.95;;;28.10;1.00;;;;;;7373880;19;20019;-67
2023/09/10 11:32:50;;;;;;;7.32;5.88;;;27.80;1.00;;;;;;7370214;19;20017;-66
2023/09/10 11:35:29;;;;;;;7.53;5.50;;;27.90;1.00;;;;;;7369371;19;20102;-67
2023/09/10 11:37:59;;;;;;;6.57;5.28;;;28.10;1.00;;;;;;7374260;19;20034;-67
2023/09/10 11:40:29;;;;;;;7.47;5.78;;;28.00;1.00;;;;;;7376262;19;20011;-68
2023/09/10 11:43:00;;;;;;;5.57;4.65;;;28.10;1.00;;;;;;7372300;19;20010;-67
2023/09/10 11:45:33;;;;;;;6.78;4.97;;;28.20;1.00;;;;;;7374440;19;20494;-66
2023/09/10 11:48:07;;;;;;;8.57;5.18;;;28.30;1.00;;;;;;7370983;19;20399;-66
2023/09/10 11:50:38;;;;;;;6.20;5.03;;;28.30;1.00;;;;;;7369956;19;20032;-66
2023/09/10 11:53:08;;;;;;;7.70;4.72;;;28.20;1.00;;;;;;7366922;19;20095;-66
2023/09/10 11:55:38;;;;;;;9.32;5.22;;;28.10;1.00;;;;;;7368580;19;20011;-67
2023/09/10 11:58:08;;;;;;;16.45;5.53;;;28.30;1.00;;;;;;7369670;19;20358;-67
2023/09/10 12:00:38;;;;;;;12.32;5.68;;;28.50;1.00;;;;;;7370430;19;20030;-67
2023/09/10 12:03:11;;;;;;;8.52;5.20;;;28.60;1.00;;;;;;7364001;19;20014;-68
2023/09/10 12:05:43;;;;;;;7.78;5.40;;;28.40;1.00;;;;;;7370603;19;20011;-67
2023/09/10 12:08:13;;;;;;;10.90;5.30;;;28.20;1.00;;;;;;7376017;19;20014;-67
2023/09/10 12:10:43;;;;;;;10.25;5.65;;;28.40;1.00;;;;;;7374380;19;20093;-67
2023/09/10 12:13:13;;;;;;;10.60;5.30;;;28.20;1.00;;;;;;7372226;19;20018;-66
2023/09/10 12:15:43;;;;;;;10.25;4.88;;;28.60;1.00;;;;;;7375253;19;20044;-67
2023/09/10 12:18:17;;;;;;;7.38;5.07;;;28.60;1.00;;;;;;7375498;19;20022;-66
2023/09/10 12:20:47;;;;;;;7.18;4.97;;;28.60;1.00;;;;;;7375982;19;20007;-67
2023/09/10 12:23:17;;;;;;;8.07;5.20;;;28.40;1.00;;;;;;7372365;19;20013;-67
2023/09/10 12:25:55;;;;;;;9.23;5.57;;;28.60;1.00;;;;;;7375074;19;20086;-68
2023/09/10 12:28:26;;;;;;;6.18;4.78;;;28.80;1.00;;;;;;7390171;19;20074;-67
2023/09/10 12:30:57;;;;;;;6.78;4.80;;;28.80;1.00;;;;;;7394328;19;20082;-67
2023/09/10 12:33:30;;;;;;;6.68;4.82;;;28.80;1.00;;;;;;7395605;19;20014;-67
2023/09/10 12:36:00;;;;;;;9.43;5.00;;;28.90;1.00;;;;;;7392897;19;20477;-67
2023/09/10 12:38:32;;;;;;;8.15;4.90;;;28.80;1.00;;;;;;7396076;19;20010;-67
2023/09/10 12:41:02;;;;;;;7.88;5.30;;;28.80;1.00;;;;;;7394426;19;20031;-66
2023/09/10 12:43:32;;;;;;;8.98;5.63;;;28.80;1.00;;;;;;7395397;19;20014;-66
2023/09/10 12:46:02;;;;;;;8.23;5.03;;;28.80;1.00;;;;;;7394062;19;20027;-67
2023/09/10 12:48:35;;;;;;;6.93;4.88;;;28.80;1.00;;;;;;7395935;19;20078;-67
2023/09/10 12:51:06;;;;;;;9.10;5.32;;;28.90;1.00;;;;;;7394664;19;20011;-67
2023/09/10 12:53:37;;;;;;;6.07;5.15;;;29.20;1.00;;;;;;7393492;19;20090;-67
2023/09/10 12:56:08;;;;;;;6.47;4.93;;;29.20;1.00;;;;;;7393484;19;20019;-67
2023/09/10 12:58:38;;;;;;;8.35;5.18;;;28.90;1.00;;;;;;7395410;19;20021;-66
2023/09/10 13:01:18;;;;;;;9.10;5.25;;;29.10;1.00;;;;;;7394516;19;20031;-67